地図

経路データ

SID SEASON NUMBER BASIN SUBBASIN NAME ISO_TIME NATURE LAT LON WMO_WIND WMO_PRES WMO_AGENCY TRACK_TYPE DIST2LAND LANDFALL IFLAG USA_AGENCY USA_ATCF_ID USA_LAT USA_LON USA_RECORD USA_STATUS USA_WIND USA_PRES USA_SSHS USA_R34_NE USA_R34_SE USA_R34_SW USA_R34_NW USA_R50_NE USA_R50_SE USA_R50_SW USA_R50_NW USA_R64_NE USA_R64_SE USA_R64_SW USA_R64_NW USA_POCI USA_ROCI USA_RMW USA_EYE TOKYO_LAT TOKYO_LON TOKYO_GRADE TOKYO_WIND TOKYO_PRES TOKYO_R50_DIR TOKYO_R50_LONG TOKYO_R50_SHORT TOKYO_R30_DIR TOKYO_R30_LONG TOKYO_R30_SHORT TOKYO_LAND CMA_LAT CMA_LON CMA_CAT CMA_WIND CMA_PRES HKO_LAT HKO_LON HKO_CAT HKO_WIND HKO_PRES NEWDELHI_LAT NEWDELHI_LON NEWDELHI_GRADE NEWDELHI_WIND NEWDELHI_PRES NEWDELHI_CI NEWDELHI_DP NEWDELHI_POCI REUNION_LAT REUNION_LON REUNION_TYPE REUNION_WIND REUNION_PRES REUNION_TNUM REUNION_CI REUNION_RMW REUNION_R34_NE REUNION_R34_SE REUNION_R34_SW REUNION_R34_NW REUNION_R50_NE REUNION_R50_SE REUNION_R50_SW REUNION_R50_NW REUNION_R64_NE REUNION_R64_SE REUNION_R64_SW REUNION_R64_NW BOM_LAT BOM_LON BOM_TYPE BOM_WIND BOM_PRES BOM_TNUM BOM_CI BOM_RMW BOM_R34_NE BOM_R34_SE BOM_R34_SW BOM_R34_NW BOM_R50_NE BOM_R50_SE BOM_R50_SW BOM_R50_NW BOM_R64_NE BOM_R64_SE BOM_R64_SW BOM_R64_NW BOM_ROCI BOM_POCI BOM_EYE BOM_POS_METHOD BOM_PRES_METHOD NADI_LAT NADI_LON NADI_CAT NADI_WIND NADI_PRES WELLINGTON_LAT WELLINGTON_LON WELLINGTON_WIND WELLINGTON_PRES DS824_LAT DS824_LON DS824_STAGE DS824_WIND DS824_PRES TD9636_LAT TD9636_LON TD9636_STAGE TD9636_WIND TD9636_PRES TD9635_LAT TD9635_LON TD9635_WIND TD9635_PRES TD9635_ROCI NEUMANN_LAT NEUMANN_LON NEUMANN_CLASS NEUMANN_WIND NEUMANN_PRES MLC_LAT MLC_LON MLC_CLASS MLC_WIND MLC_PRES USA_GUST BOM_GUST BOM_GUST_PER REUNION_GUST REUNION_GUST_PER USA_SEAHGT USA_SEARAD_NE USA_SEARAD_SE USA_SEARAD_SW USA_SEARAD_NW STORM_SPEED STORM_DIR
1955025S08082 1955 8 SI MM NOT_NAMED 1955-01-24 18:00:00 TS -7.70000 82.2000 main 1534 1533 O________OO___ jtwc_sh SH111955 -7.70000 82.2000 -1 -7.70000 82.2000 TC -7.70000 82.2000 7 16 251
1955025S08082 1955 8 SI MM NOT_NAMED 1955-01-24 21:00:00 TS -7.95366 81.4548 main 1560 1559 P________PP___ SH111955 -7.94026 81.4576 -1 -7.94026 81.4576 TC -7.98047 81.4492 7 16 251
1955025S08082 1955 8 SI MM NOT_NAMED 1955-01-25 00:00:00 TS -8.21943 80.6961 main 1580 1580 O________OP___ jtwc_sh SH111955 -8.20000 80.7000 -1 -8.20000 80.7000 TC -8.25828 80.6884 7 16 250
1955025S08082 1955 8 SI MM NOT_NAMED 1955-01-25 03:00:00 TS -8.50554 79.9127 main 1615 1615 P________PP___ SH111955 -8.49234 79.9149 -1 -8.49234 79.9149 TC -8.53195 79.9084 7 17 250
1955025S08082 1955 8 SI MM NOT_NAMED 1955-01-25 06:00:00 TS -8.80000 79.1000 main 1655 1655 O________OO___ jtwc_sh SH111955 -8.80000 79.1000 -1 -8.80000 79.1000 TC 25 -8.80000 79.1000 1 17 250
1955025S08082 1955 8 SI MM NOT_NAMED 1955-01-25 09:00:00 TS -9.08799 78.2578 main 1700 1700 P________PP___ SH111955 -9.09985 78.2574 -1 -9.09985 78.2574 TC 25 -9.06425 78.2587 1 18 251
1955025S08082 1955 8 SI MM NOT_NAMED 1955-01-25 12:00:00 TS -9.37995 77.3996 main 1750 1750 O________OP___ jtwc_sh SH111955 -9.40000 77.4000 -1 -9.40000 77.4000 TC 25 -9.33986 77.3988 1 18 251
1955025S08082 1955 8 SI MM NOT_NAMED 1955-01-25 15:00:00 TS -9.66673 76.5414 main 1806 1806 P________PP___ SH111955 -9.67735 76.5422 -1 -9.67735 76.5422 TC 25 -9.64550 76.5396 1 18 250
1955025S08082 1955 8 SI MM NOT_NAMED 1955-01-25 18:00:00 TS -10.0000 75.7000 main 1862 1862 O________OO___ jtwc_sh SH111955 -10.0000 75.7000 -1 -10.0000 75.7000 TC 25 -10.0000 75.7000 1 18 245
1955025S08082 1955 8 SI MM NOT_NAMED 1955-01-25 21:00:00 TS -10.4188 74.8683 main 1932 1932 P________PP___ SH111955 -10.4198 74.8849 -1 -10.4198 74.8849 TC 25 -10.4167 74.8351 1 18 241
1955025S08082 1955 8 SI MM NOT_NAMED 1955-01-26 00:00:00 TS -10.8943 74.0670 main 2014 1931 O________OP___ jtwc_sh SH111955 -10.9000 74.1000 -1 -10.9000 74.1000 TC 25 -10.8830 74.0011 1 18 238
1955025S08082 1955 8 SI MM NOT_NAMED 1955-01-26 03:00:00 TS -11.3842 73.2887 main 1931 1836 P________PP___ SH111955 -11.3850 73.3124 -1 -11.3850 73.3124 TC 25 -11.3826 73.2413 1 18 235
1955025S08082 1955 8 SI MM NOT_NAMED 1955-01-26 06:00:00 TS -11.9000 72.6000 main 1836 1751 O________OO___ jtwc_sh SH111955 -11.9000 72.6000 -1 -11.9000 72.6000 TC 25 -11.9000 72.6000 1 17 230
1955025S08082 1955 8 SI MM NOT_NAMED 1955-01-26 09:00:00 TS -12.4379 71.9836 main 1751 1680 P________PP___ SH111955 -12.4499 71.9601 -1 -12.4499 71.9601 TC 25 -12.4137 72.0307 1 15 224
1955025S08082 1955 8 SI MM NOT_NAMED 1955-01-26 12:00:00 TS -12.9804 71.5312 main 1670 1624 O________OP___ jtwc_sh SH111955 -13.0000 71.5000 -1 -13.0000 71.5000 TC 25 -12.9413 71.5935 1 13 213
1955025S08082 1955 8 SI MM NOT_NAMED 1955-01-26 15:00:00 TS -13.4960 71.2713 main 1624 1587 P________PP___ SH111955 -13.5073 71.2523 -1 -13.5073 71.2523 TC 25 -13.4733 71.3093 1 11 197
1955025S08082 1955 8 SI MM NOT_NAMED 1955-01-26 18:00:00 TS -14.0000 71.2000 main 1587 1562 O________OO___ jtwc_sh SH111955 -14.0000 71.2000 -1 -14.0000 71.2000 TC 25 -14.0000 71.2000 1 10 183
1955025S08082 1955 8 SI MM NOT_NAMED 1955-01-26 21:00:00 TS -14.5088 71.2184 main 1562 1552 P________PP___ SH111955 -14.4999 71.2176 -1 -14.4999 71.2176 TC 25 -14.5267 71.2198 1 10 169
1955025S08082 1955 8 SI MM NOT_NAMED 1955-01-27 00:00:00 TS -15.0146 71.4047 main 1557 1553 O________OP___ jtwc_sh SH111955 -15.0000 71.4000 -1 -15.0000 71.4000 TC 25 -15.0439 71.4142 1 11 154
1955025S08082 1955 8 SI MM NOT_NAMED 1955-01-27 03:00:00 TS -15.5230 71.7339 main 1565 1565 P________PP___ SH111955 -15.5149 71.7250 -1 -15.5149 71.7250 TC 30 -15.5392 71.7516 1 13 142
1955025S08082 1955 8 SI MM NOT_NAMED 1955-01-27 06:00:00 TS -16.0000 72.2000 main 1595 1595 O________OO___ jtwc_sh SH111955 -16.0000 72.2000 -1 -16.0000 72.2000 TC 35 -16.0000 72.2000 2 13 133
1955025S08082 1955 8 SI MM NOT_NAMED 1955-01-27 09:00:00 TS -16.4256 72.7477 main 1631 1631 P________PP___ SH111955 -16.4225 72.7701 -1 -16.4225 72.7701 TC 35 -16.4318 72.7029 2 14 126
1955025S08082 1955 8 SI MM NOT_NAMED 1955-01-27 12:00:00 TS -16.8086 73.3673 main 1689 1686 O________OP___ jtwc_sh SH111955 -16.8000 73.4000 -1 -16.8000 73.4000 TC 35 -16.8258 73.3019 2 14 122
1955025S08082 1955 8 SI MM NOT_NAMED 1955-01-27 15:00:00 TS -17.1705 73.9835 main 1739 1739 P________PP___ SH111955 -17.1648 74.0002 -1 -17.1648 74.0002 TC 35 -17.1818 73.9500 2 14 120
1955025S08082 1955 8 SI MM NOT_NAMED 1955-01-27 18:00:00 TS -17.5000 74.6000 main 1794 1794 O________OO___ jtwc_sh SH111955 -17.5000 74.6000 -1 -17.5000 74.6000 TC 35 -17.5000 74.6000 2 13 119
1955025S08082 1955 8 SI MM NOT_NAMED 1955-01-27 21:00:00 TS -17.8092 75.2098 main 1849 1849 P________PP___ SH111955 -17.8224 75.2076 -1 -17.8224 75.2076 TC 30 -17.7828 75.2143 2 13 117
1955025S08082 1955 8 SI MM NOT_NAMED 1955-01-28 00:00:00 TS -18.0793 75.7982 main 1905 1905 O________OP___ jtwc_sh SH111955 -18.1000 75.8000 -1 -18.1000 75.8000 TC 25 -18.0378 75.7946 2 12 114
1955025S08082 1955 8 SI MM NOT_NAMED 1955-01-28 03:00:00 TS -18.3032 76.3574 main 1963 1963 P________PP___ SH111955 -18.3178 76.3599 -1 -18.3178 76.3599 TC 25 -18.2740 76.3525 2 11 112
1955025S08082 1955 8 SI MM NOT_NAMED 1955-01-28 06:00:00 TS -18.5000 76.9000 main 2012 O________OO___ jtwc_sh SH111955 -18.5000 76.9000 -1 -18.5000 76.9000 TC 25 -18.5000 76.9000 1 11 111

IBTrACS Databaseについて

本データベースは、米国NOAAが公開する1842年以降の世界の熱帯低気圧のベストトラックデータアーカイブInternational Best Track Archive for Climate Stewardship (IBTrACS)を、ウェブで閲覧しやすい形式に変換したものです。

最終更新日:2021-10-08